Time;durP1;ratioP1;P1;durP2;ratioP2;P2;SDS_P1;SDS_P2;PMS_P1;PMS_P2;Temp;Humidity;BMP_temperature;BMP_pressure;BME280_temperature;BME280_humidity;BME280_pressure;Samples;Min_cycle;Max_cycle;Signal;HPM_P1;HPM_P2
2021/04/08 00:01:29;;;;;;;9.73;3.55;;;;;;;2.40;77.41;100568.44;5058845;28;20165;-71
2021/04/08 00:03:55;;;;;;;8.05;3.88;;;;;;;2.35;78.25;100559.63;5058604;28;20050;-71
2021/04/08 00:06:20;;;;;;;8.25;3.67;;;;;;;2.27;78.61;100563.75;5059820;28;20410;-71
2021/04/08 00:08:46;;;;;;;11.55;3.72;;;;;;;2.29;78.63;100570.75;5059204;28;20037;-71
2021/04/08 00:11:11;;;;;;;10.52;4.40;;;;;;;2.24;78.59;100572.34;5061687;28;20029;-71
2021/04/08 00:13:37;;;;;;;9.32;3.88;;;;;;;2.29;77.53;100570.75;5052198;28;20032;-71
2021/04/08 00:16:03;;;;;;;12.73;3.35;;;;;;;2.31;76.90;100595.13;5058815;28;20064;-71
2021/04/08 00:18:28;;;;;;;8.90;3.83;;;;;;;2.31;76.96;100565.59;5051301;28;20155;-71
2021/04/08 00:20:54;;;;;;;11.33;4.00;;;;;;;2.30;76.67;100574.22;5062863;28;20564;-72
2021/04/08 00:23:19;;;;;;;9.02;3.30;;;;;;;2.27;76.37;100584.56;5065241;28;20045;-72
2021/04/08 00:25:45;;;;;;;14.50;4.65;;;;;;;2.27;75.70;100587.16;5065987;28;20041;-72
2021/04/08 00:28:10;;;;;;;13.18;4.07;;;;;;;2.33;76.03;100575.22;5065201;28;20039;-72
2021/04/08 00:30:45;;;;;;;12.50;4.22;;;;;;;2.40;75.30;100584.06;5062694;28;20067;-71
2021/04/08 00:33:17;;;;;;;11.07;3.67;;;;;;;2.41;75.33;100575.41;5057468;28;20036;-71
2021/04/08 00:35:44;;;;;;;11.65;4.50;;;;;;;2.36;75.44;100585.72;5066261;28;20028;-72
2021/04/08 00:38:09;;;;;;;8.57;4.30;;;;;;;2.45;75.33;100574.66;5067899;28;20036;-71
2021/04/08 00:40:36;;;;;;;9.32;3.35;;;;;;;2.38;75.46;100581.44;5062940;28;20037;-72
2021/04/08 00:43:01;;;;;;;11.63;3.50;;;;;;;2.48;75.62;100598.19;5062432;28;20086;-72
2021/04/08 00:45:27;;;;;;;10.05;3.85;;;;;;;2.47;75.10;100593.81;5065521;28;20036;-72
2021/04/08 00:47:52;;;;;;;10.43;4.28;;;;;;;2.50;74.65;100596.50;5066007;28;20036;-72
2021/04/08 00:50:19;;;;;;;8.57;3.90;;;;;;;2.55;74.23;100607.94;5045772;28;20119;-72
2021/04/08 00:52:51;;;;;;;12.18;3.78;;;;;;;2.42;75.18;100605.84;5044585;28;20033;-72
2021/04/08 00:55:18;;;;;;;15.00;4.50;;;;;;;2.43;74.98;100607.59;5064104;28;20029;-72
2021/04/08 00:57:45;;;;;;;13.05;4.57;;;;;;;2.40;75.23;100631.84;5065748;28;20057;-72
2021/04/08 01:00:11;;;;;;;12.38;3.85;;;;;;;2.42;74.09;100608.44;5057302;28;20029;-72
2021/04/08 01:02:36;;;;;;;11.18;3.58;;;;;;;2.38;75.07;100617.00;5051250;28;20029;-72
2021/04/08 01:05:03;;;;;;;11.90;3.95;;;;;;;2.33;75.15;100642.94;5061923;28;20025;-72
2021/04/08 01:07:28;;;;;;;9.65;3.67;;;;;;;2.36;75.40;100626.50;5054006;28;20052;-72
2021/04/08 01:09:54;;;;;;;9.15;3.17;;;;;;;2.36;75.34;100626.50;5062134;28;20499;-72
2021/04/08 01:12:20;;;;;;;12.70;2.92;;;;;;;2.31;75.59;100638.53;5064159;28;20399;-72
2021/04/08 01:14:45;;;;;;;12.95;3.50;;;;;;;2.28;74.45;100635.81;5047563;28;20086;-72
2021/04/08 01:17:49;;;;;;;10.13;2.72;;;;;;;2.37;74.59;100643.91;5064055;28;20040;-72
2021/04/08 01:20:14;;;;;;;8.98;3.17;;;;;;;2.32;74.53;100642.88;5038457;28;20048;-72
2021/04/08 01:23:15;;;;;;;11.50;2.70;;;;;;;2.29;74.27;100663.63;5061747;28;20041;-72
2021/04/08 01:26:05;;;;;;;13.68;3.53;;;;;;;2.34;73.06;100662.03;5055144;28;20057;-72
2021/04/08 01:28:35;;;;;;;10.82;3.13;;;;;;;2.29;72.54;100653.22;5054151;28;20403;-72
2021/04/08 01:31:06;;;;;;;7.72;2.60;;;;;;;2.28;72.21;100662.75;5060434;28;20116;-72
2021/04/08 01:33:43;;;;;;;13.82;3.42;;;;;;;2.32;72.43;100658.50;5054179;28;20463;-72
2021/04/08 01:36:15;;;;;;;13.57;3.22;;;;;;;2.34;72.22;100672.47;5062246;28;20075;-72
2021/04/08 01:38:49;;;;;;;10.27;2.67;;;;;;;2.34;71.70;100673.34;5065031;28;20087;-72
2021/04/08 01:41:20;;;;;;;10.80;2.30;;;;;;;2.24;72.15;100662.63;5063198;28;20033;-72
2021/04/08 01:43:49;;;;;;;11.27;3.33;;;;;;;2.36;71.78;100679.50;5061418;28;20028;-71
2021/04/08 01:46:18;;;;;;;11.02;2.55;;;;;;;2.27;72.15;100674.00;5062711;28;20037;-71
2021/04/08 01:48:46;;;;;;;9.32;2.67;;;;;;;2.37;72.03;100667.34;5064911;28;20554;-71
2021/04/08 01:51:13;;;;;;;9.32;2.53;;;;;;;2.36;71.81;100661.25;5063531;28;20040;-71
2021/04/08 01:53:43;;;;;;;8.60;3.30;;;;;;;2.36;71.68;100665.59;5061552;28;20041;-71
2021/04/08 01:56:10;;;;;;;8.90;2.80;;;;;;;2.30;71.75;100681.88;5061826;28;20411;-71
2021/04/08 01:58:35;;;;;;;10.27;2.60;;;;;;;2.27;72.13;100670.50;5064654;28;20032;-71
2021/04/08 02:01:01;;;;;;;10.90;3.67;;;;;;;2.29;71.55;100671.44;5064506;28;20383;-71
2021/04/08 02:03:28;;;;;;;8.73;2.40;;;;;;;2.34;71.87;100659.44;5061164;28;20071;-71
2021/04/08 02:05:54;;;;;;;9.45;2.42;;;;;;;2.28;72.92;100664.44;5060754;28;20033;-71
2021/04/08 02:08:20;;;;;;;12.48;3.35;;;;;;;2.23;73.54;100674.75;5063377;28;20044;-71
2021/04/08 02:10:46;;;;;;;14.38;2.97;;;;;;;2.09;74.70;100689.06;5063928;28;20033;-71
2021/04/08 02:13:14;;;;;;;14.38;3.15;;;;;;;1.99;75.53;100698.31;5061934;28;20385;-71
2021/04/08 02:15:42;;;;;;;12.05;2.63;;;;;;;1.90;76.44;100685.00;5064041;28;20032;-72
2021/04/08 02:18:14;;;;;;;13.98;2.67;;;;;;;1.85;76.82;100678.78;5063565;28;20036;-71
2021/04/08 02:20:42;;;;;;;11.00;2.43;;;;;;;1.85;76.46;100686.59;5061280;28;20032;-71
2021/04/08 02:23:09;;;;;;;15.07;2.53;;;;;;;1.77;77.10;100680.25;5059681;28;20032;-71
2021/04/08 02:25:36;;;;;;;16.13;3.73;;;;;;;1.78;76.15;100690.69;5063888;28;20044;-71
2021/04/08 02:28:04;;;;;;;12.50;2.30;;;;;;;1.91;75.91;100691.97;5064066;28;20047;-71
2021/04/08 02:30:30;;;;;;;14.43;2.23;;;;;;;1.98;74.94;100687.00;5052864;28;20037;-71
2021/04/08 02:32:56;;;;;;;11.27;2.03;;;;;;;1.99;74.86;100695.69;5060449;28;20063;-71
2021/04/08 02:35:22;;;;;;;12.17;2.40;;;;;;;2.01;74.81;100701.84;5062828;28;20025;-71
2021/04/08 02:37:49;;;;;;;9.68;2.30;;;;;;;2.01;74.77;100722.66;5063812;28;20029;-71
2021/04/08 02:40:17;;;;;;;10.23;1.92;;;;;;;1.95;76.44;100712.06;5062115;28;20029;-71
2021/04/08 02:42:43;;;;;;;12.63;3.37;;;;;;;1.87;76.08;100734.38;5060030;28;20090;-71
2021/04/08 02:45:09;;;;;;;14.03;3.00;;;;;;;1.82;76.38;100709.91;5060760;28;20490;-71
2021/04/08 02:47:35;;;;;;;11.10;2.83;;;;;;;1.83;76.31;100724.69;5063762;28;20487;-71
2021/04/08 02:50:01;;;;;;;8.70;1.90;;;;;;;1.83;76.50;100715.16;5063644;28;20041;-71
2021/04/08 02:52:36;;;;;;;13.77;3.03;;;;;;;1.92;75.96;100719.78;5060215;28;20056;-71
2021/04/08 02:55:15;;;;;;;12.03;2.60;;;;;;;1.88;75.55;100725.72;5058768;28;20099;-71
2021/04/08 02:57:59;;;;;;;10.10;2.10;;;;;;;1.82;76.41;100718.59;5053607;28;20057;-71
2021/04/08 03:00:28;;;;;;;12.50;2.33;;;;;;;1.84;76.46;100716.94;5045004;28;20032;-71
2021/04/08 03:02:58;;;;;;;11.48;2.90;;;;;;;1.84;76.58;100719.53;5063329;28;20039;-71
2021/04/08 03:05:25;;;;;;;12.27;2.30;;;;;;;1.82;76.14;100728.13;5060170;28;20083;-71
2021/04/08 03:07:53;;;;;;;9.45;2.20;;;;;;;1.86;75.94;100737.78;5059898;28;20033;-71
2021/04/08 03:10:19;;;;;;;13.38;2.47;;;;;;;1.87;76.73;100734.38;5062009;28;20040;-71
2021/04/08 03:12:48;;;;;;;6.27;2.40;;;;;;;1.93;76.60;100737.16;5063076;28;20046;-71
2021/04/08 03:15:33;;;;;;;11.97;2.63;;;;;;;1.95;75.89;100746.78;5061374;28;20529;-72
2021/04/08 03:17:59;;;;;;;10.18;2.13;;;;;;;1.91;75.73;100751.84;5059813;28;20048;-71
2021/04/08 03:20:26;;;;;;;10.90;2.22;;;;;;;2.00;74.80;100767.78;5062669;28;20071;-71
2021/04/08 03:22:52;;;;;;;9.27;2.00;;;;;;;2.00;74.92;100749.53;5063065;28;20036;-71
2021/04/08 03:25:18;;;;;;;9.35;2.17;;;;;;;2.04;74.51;100761.81;5060684;28;20086;-71
2021/04/08 03:27:45;;;;;;;11.43;2.50;;;;;;;2.07;74.47;100767.13;5059517;28;20063;-71
2021/04/08 03:30:15;;;;;;;10.05;1.95;;;;;;;2.11;74.38;100774.19;5060703;28;20040;-71
2021/04/08 03:32:42;;;;;;;6.15;1.83;;;;;;;2.04;74.56;100768.75;5045308;28;20036;-71
2021/04/08 03:35:08;;;;;;;9.52;2.25;;;;;;;1.97;74.49;100773.75;5062093;28;20032;-71
2021/04/08 03:37:34;;;;;;;6.88;2.08;;;;;;;1.93;74.31;100777.09;5059484;28;20411;-71
2021/04/08 03:40:04;;;;;;;10.38;2.30;;;;;;;1.90;74.64;100786.53;5059380;28;20043;-71
2021/04/08 03:42:30;;;;;;;11.77;2.40;;;;;;;1.92;75.11;100775.31;5051287;28;20036;-71
2021/04/08 03:44:55;;;;;;;10.38;2.78;;;;;;;1.97;74.72;100784.19;5059563;28;20025;-71
2021/04/08 03:47:26;;;;;;;11.85;3.10;;;;;;;1.93;74.96;100784.88;5061702;28;20396;-71
2021/04/08 03:49:53;;;;;;;9.47;2.97;;;;;;;1.94;74.92;100778.00;5062835;28;20450;-71
2021/04/08 03:52:19;;;;;;;8.70;2.78;;;;;;;1.96;75.06;100781.50;5060519;28;20037;-71
2021/04/08 03:54:48;;;;;;;9.80;2.47;;;;;;;1.90;74.92;100789.13;5061291;28;20672;-71
2021/04/08 03:57:17;;;;;;;9.33;3.00;;;;;;;1.78;75.33;100817.34;5046715;28;20037;-72
2021/04/08 03:59:47;;;;;;;11.93;3.22;;;;;;;1.81;76.46;100797.53;5066922;28;20115;-72
2021/04/08 04:02:15;;;;;;;9.40;3.20;;;;;;;1.81;76.41;100812.22;5068303;28;20483;-71
2021/04/08 04:04:42;;;;;;;12.30;3.30;;;;;;;1.90;76.66;100804.75;5063246;28;20045;-72
2021/04/08 04:07:07;;;;;;;7.93;2.17;;;;;;;1.88;76.68;100804.69;5063692;28;20040;-71
2021/04/08 04:09:33;;;;;;;12.60;3.35;;;;;;;1.90;77.63;100829.03;5066674;28;20032;-71
2021/04/08 04:11:59;;;;;;;7.47;2.72;;;;;;;1.86;78.09;100829.78;5066696;28;20391;-72
2021/04/08 04:14:27;;;;;;;10.32;2.58;;;;;;;1.91;77.53;100819.50;5063564;28;20033;-71
2021/04/08 04:16:54;;;;;;;9.60;2.53;;;;;;;1.90;77.99;100828.16;5066031;28;20064;-71
2021/04/08 04:19:20;;;;;;;8.60;3.20;;;;;;;1.94;77.69;100827.44;5062710;28;20060;-71
2021/04/08 04:21:45;;;;;;;7.72;3.15;;;;;;;1.88;77.90;100838.50;5066445;28;20493;-71
2021/04/08 04:24:10;;;;;;;9.47;3.00;;;;;;;1.84;78.01;100841.00;5065044;28;20446;-71
2021/04/08 04:26:36;;;;;;;9.10;3.13;;;;;;;1.91;77.58;100832.53;5062350;28;20040;-71
2021/04/08 04:29:02;;;;;;;13.80;3.47;;;;;;;1.91;77.57;100838.66;5063084;28;20033;-71
2021/04/08 04:31:28;;;;;;;9.67;3.00;;;;;;;1.85;77.45;100853.16;5066190;28;20060;-71
2021/04/08 04:33:53;;;;;;;13.10;2.58;;;;;;;1.85;77.03;100832.34;5066172;28;20063;-71
2021/04/08 04:36:19;;;;;;;11.98;3.10;;;;;;;1.81;77.40;100836.56;5063837;28;20471;-71
2021/04/08 04:38:45;;;;;;;10.57;2.50;;;;;;;1.85;77.07;100842.75;5062721;28;20052;-71
2021/04/08 04:41:11;;;;;;;8.80;2.50;;;;;;;1.82;77.54;100842.66;5063683;28;20499;-71
2021/04/08 04:43:36;;;;;;;12.80;3.00;;;;;;;1.84;76.77;100844.47;5066007;28;20037;-71
2021/04/08 04:46:01;;;;;;;7.28;2.78;;;;;;;1.88;76.81;100868.88;5065606;28;20395;-71
2021/04/08 04:48:29;;;;;;;13.77;2.93;;;;;;;1.86;77.25;100860.13;5062643;28;20081;-71
2021/04/08 04:50:55;;;;;;;14.10;3.63;;;;;;;1.82;77.62;100851.34;5062431;28;20064;-70
2021/04/08 04:53:20;;;;;;;14.55;4.22;;;;;;;1.82;76.92;100851.34;5046771;28;20072;-71
2021/04/08 04:55:46;;;;;;;11.80;3.08;;;;;;;1.86;76.69;100860.13;5065427;28;20069;-71
2021/04/08 04:58:11;;;;;;;7.70;2.70;;;;;;;1.90;75.55;100872.41;5053225;28;20395;-71
2021/04/08 05:00:37;;;;;;;13.60;3.33;;;;;;;1.91;76.13;100863.75;5061737;28;20028;-70
2021/04/08 05:03:02;;;;;;;15.52;2.97;;;;;;;1.96;76.03;100867.41;5062853;28;20029;-71
2021/04/08 05:05:28;;;;;;;9.75;2.60;;;;;;;1.91;75.72;100876.78;5060015;28;20502;-71
2021/04/08 05:07:53;;;;;;;12.43;3.00;;;;;;;1.91;75.73;100868.97;5063800;28;20021;-71
2021/04/08 05:10:19;;;;;;;9.67;2.70;;;;;;;1.88;76.12;100872.34;5064122;28;20041;-71
2021/04/08 05:12:44;;;;;;;10.38;2.78;;;;;;;1.91;74.93;100895.00;5065401;28;20040;-71
2021/04/08 05:15:09;;;;;;;15.50;4.63;;;;;;;2.02;74.68;100884.94;5064289;28;20067;-71
2021/04/08 05:17:35;;;;;;;9.65;2.35;;;;;;;2.11;73.90;100890.47;5062071;28;20044;-71
2021/04/08 05:20:00;;;;;;;10.55;2.28;;;;;;;2.06;74.26;100887.72;5061914;28;20644;-71
2021/04/08 05:22:26;;;;;;;17.40;3.65;;;;;;;2.08;74.09;100896.47;5064899;28;20066;-71
2021/04/08 05:24:51;;;;;;;14.20;3.03;;;;;;;2.22;72.43;100914.28;5065171;28;20033;-71
2021/04/08 05:27:18;;;;;;;6.30;2.10;;;;;;;2.17;72.60;100904.63;5063178;28;20036;-71
2021/04/08 05:29:43;;;;;;;13.77;3.13;;;;;;;2.25;72.73;100896.16;5061615;28;20652;-71
2021/04/08 05:32:08;;;;;;;16.90;3.25;;;;;;;2.28;71.92;100893.63;5062394;28;20041;-71
2021/04/08 05:34:34;;;;;;;13.50;2.50;;;;;;;2.28;72.55;100893.63;5065173;28;20074;-71
2021/04/08 05:36:59;;;;;;;9.65;3.15;;;;;;;2.16;72.90;100902.81;5064892;28;20043;-71
2021/04/08 05:39:24;;;;;;;12.75;3.47;;;;;;;2.07;73.25;100920.75;5049161;28;20130;-71
2021/04/08 05:41:50;;;;;;;14.05;3.13;;;;;;;2.10;73.37;100913.03;5057412;28;20036;-70
2021/04/08 05:44:15;;;;;;;15.80;3.67;;;;;;;2.26;73.42;100924.84;5064833;28;20068;-71
2021/04/08 05:46:40;;;;;;;11.85;3.22;;;;;;;2.46;73.58;100917.69;5066484;28;20037;-71
2021/04/08 05:49:06;;;;;;;11.10;3.10;;;;;;;2.60;72.34;100918.16;5064346;28;20032;-71
2021/04/08 05:51:31;;;;;;;10.15;3.13;;;;;;;2.72;71.34;100930.69;5061500;28;20495;-71
2021/04/08 05:53:56;;;;;;;17.77;3.30;;;;;;;2.72;70.76;100915.03;5061170;28;20131;-71
2021/04/08 05:56:22;;;;;;;12.35;2.70;;;;;;;2.73;70.68;100933.34;5063506;28;20458;-71
2021/04/08 05:58:47;;;;;;;11.25;3.08;;;;;;;2.55;70.09;100936.25;5064693;28;20481;-70
2021/04/08 06:01:12;;;;;;;15.82;3.47;;;;;;;2.36;70.55;100957.31;5063153;28;20506;-70
2021/04/08 06:03:38;;;;;;;12.82;3.15;;;;;;;2.35;70.81;100951.19;5061161;28;20442;-71
2021/04/08 06:06:04;;;;;;;16.45;3.15;;;;;;;2.31;70.19;100959.75;5060703;28;20608;-71
2021/04/08 06:08:29;;;;;;;11.55;2.78;;;;;;;2.25;70.74;100938.69;5064445;28;20112;-71
2021/04/08 06:10:55;;;;;;;16.98;3.25;;;;;;;2.23;70.36;100966.44;5066180;28;20414;-71
2021/04/08 06:13:20;;;;;;;14.98;3.63;;;;;;;2.31;70.39;100961.50;5064177;28;20079;-71
2021/04/08 06:15:46;;;;;;;16.38;3.15;;;;;;;2.29;69.92;100966.63;5063967;28;20111;-71
2021/04/08 06:18:11;;;;;;;11.85;2.80;;;;;;;2.29;69.94;100956.22;5122242;22;20086;-75
2021/04/08 06:20:36;;;;;;;17.70;4.00;;;;;;;2.42;70.17;100962.72;5074306;28;20032;-74
2021/04/08 06:23:03;;;;;;;12.65;3.47;;;;;;;2.58;68.82;100985.84;5072455;28;20446;-74
2021/04/08 06:25:29;;;;;;;10.43;3.10;;;;;;;2.73;68.86;100963.75;5063290;28;20102;-74
2021/04/08 06:27:54;;;;;;;18.88;3.55;;;;;;;2.90;69.42;100967.75;5060532;28;20040;-74
2021/04/08 06:30:20;;;;;;;14.00;3.10;;;;;;;3.01;68.04;100979.44;5071991;28;20028;-74
2021/04/08 06:32:46;;;;;;;14.35;3.28;;;;;;;3.14;67.81;100971.97;5057231;28;20032;-74
2021/04/08 06:35:11;;;;;;;12.85;3.33;;;;;;;3.04;68.54;100983.88;5057808;28;20027;-74
2021/04/08 06:37:37;;;;;;;16.23;3.65;;;;;;;3.12;68.44;100994.50;5055882;28;20123;-74
2021/04/08 06:40:04;;;;;;;17.45;4.45;;;;;;;3.28;67.14;100999.41;5071526;28;20087;-74
2021/04/08 06:42:33;;;;;;;10.43;2.97;;;;;;;3.21;67.24;101000.03;5063786;28;20032;-74
2021/04/08 06:44:59;;;;;;;15.98;3.65;;;;;;;3.29;66.98;100998.53;5071665;28;20040;-74
2021/04/08 06:47:37;;;;;;;15.85;4.10;;;;;;;3.42;66.43;100999.81;5053884;28;20072;-74
2021/04/08 06:50:05;;;;;;;13.00;3.88;;;;;;;3.53;65.87;101005.34;5071741;28;20044;-74
2021/04/08 06:52:30;;;;;;;13.95;3.38;;;;;;;3.47;65.45;100996.50;5063843;28;20033;-74
2021/04/08 06:54:57;;;;;;;15.55;3.55;;;;;;;3.43;64.60;101007.69;5071819;28;20510;-74
2021/04/08 06:57:23;;;;;;;15.27;3.10;;;;;;;3.47;64.50;101019.09;5071613;28;20127;-74
2021/04/08 06:59:49;;;;;;;9.90;3.13;;;;;;;3.46;64.59;101017.34;5071473;28;20083;-74
2021/04/08 07:02:17;;;;;;;12.70;3.78;;;;;;;3.37;64.86;101023.13;5037156;28;20355;-74
2021/04/08 07:04:43;;;;;;;13.55;3.47;;;;;;;3.40;65.01;101018.00;5071564;28;20040;-74
2021/04/08 07:07:08;;;;;;;15.00;2.90;;;;;;;3.40;65.16;101019.75;5071292;28;20037;-74
2021/04/08 07:09:34;;;;;;;11.15;3.03;;;;;;;3.35;65.13;101024.81;5071324;28;20058;-74
2021/04/08 07:12:00;;;;;;;15.63;3.70;;;;;;;3.49;65.13;101031.34;5071488;28;20445;-74
2021/04/08 07:14:26;;;;;;;12.20;3.17;;;;;;;3.63;65.79;101023.94;5071295;28;20036;-74
2021/04/08 07:16:51;;;;;;;13.77;2.97;;;;;;;3.71;64.97;101047.66;5071243;28;20036;-74
2021/04/08 07:19:18;;;;;;;12.63;2.58;;;;;;;3.70;63.92;101043.28;5071154;28;20157;-74
2021/04/08 07:21:43;;;;;;;11.60;2.28;;;;;;;3.68;63.39;101047.56;5053522;28;20040;-74
2021/04/08 07:24:10;;;;;;;14.02;3.53;;;;;;;3.73;63.47;101054.69;5071213;28;20036;-74
2021/04/08 07:26:54;;;;;;;12.00;3.13;;;;;;;3.97;62.04;101058.00;5071103;28;20028;-74
2021/04/08 07:29:56;;;;;;;9.73;2.90;;;;;;;4.05;62.04;101066.94;5070347;28;20062;-74
2021/04/08 07:32:24;;;;;;;13.30;3.25;;;;;;;4.12;60.97;101088.06;4989691;28;20038;-74
2021/04/08 07:35:03;;;;;;;13.13;3.03;;;;;;;4.18;61.29;101061.22;5038247;28;20064;-74
2021/04/08 07:37:36;;;;;;;12.25;3.25;;;;;;;4.21;61.54;101068.25;5062701;28;20048;-75
2021/04/08 07:40:26;;;;;;;15.32;2.78;;;;;;;4.21;61.56;101074.34;5061526;28;20564;-74
2021/04/08 07:42:51;;;;;;;12.65;2.58;;;;;;;4.06;62.01;101071.31;5047730;28;20052;-74
2021/04/08 07:45:33;;;;;;;12.18;3.22;;;;;;;4.11;61.85;101082.78;5052771;28;20044;-74
2021/04/08 07:48:02;;;;;;;10.90;2.40;;;;;;;4.23;62.82;101095.31;5053120;28;20036;-74
2021/04/08 07:50:28;;;;;;;13.15;2.20;;;;;;;4.30;62.21;101100.75;5053079;28;20084;-74
2021/04/08 07:52:54;;;;;;;11.90;3.17;;;;;;;4.29;61.40;101098.09;5036446;28;20032;-74
2021/04/08 07:55:29;;;;;;;10.48;2.63;;;;;;;4.34;62.76;101094.75;5070745;28;20078;-74
2021/04/08 07:58:00;;;;;;;10.88;2.90;;;;;;;4.44;62.01;101087.19;5071030;28;20040;-74
2021/04/08 08:00:40;;;;;;;15.07;2.30;;;;;;;4.54;62.15;101105.78;5070932;28;20048;-74
2021/04/08 08:03:08;;;;;;;12.93;2.58;;;;;;;4.44;63.03;101095.91;5070968;28;20040;-74
2021/04/08 08:05:36;;;;;;;11.77;2.97;;;;;;;4.39;62.61;101107.97;5070869;28;20443;-74
2021/04/08 08:08:19;;;;;;;12.82;2.95;;;;;;;4.26;61.33;101130.25;5052826;28;20040;-74
2021/04/08 08:11:02;;;;;;;15.25;3.88;;;;;;;4.30;62.06;101111.22;5064850;28;20036;-74
2021/04/08 08:13:39;;;;;;;18.65;2.92;;;;;;;4.35;61.68;101116.56;5052872;28;20041;-74
2021/04/08 08:16:06;;;;;;;9.43;2.03;;;;;;;4.26;62.05;101126.75;5052707;28;20032;-74
2021/04/08 08:18:39;;;;;;;11.85;2.25;;;;;;;4.20;61.81;101122.25;5073250;28;20025;-74
2021/04/08 08:21:06;;;;;;;15.57;2.95;;;;;;;4.22;60.93;101133.63;5070604;28;20170;-74
2021/04/08 08:23:52;;;;;;;9.90;3.08;;;;;;;4.20;61.04;101139.66;5070840;28;20039;-74
2021/04/08 08:26:44;;;;;;;8.82;2.72;;;;;;;4.42;60.52;101162.06;5070338;28;20040;-74
2021/04/08 08:29:09;;;;;;;10.07;2.58;;;;;;;4.71;60.00;101152.41;5073061;28;20485;-74
2021/04/08 08:31:42;;;;;;;11.07;2.88;;;;;;;5.02;58.91;101152.38;5070698;28;20036;-74
2021/04/08 08:34:09;;;;;;;;;;;;;;;4.80;58.77;101163.13;5071199;28;20119;-75
2021/04/08 08:36:36;;;;;;;13.98;2.40;;;;;;;4.76;59.02;101170.00;5052471;28;20050;-74
2021/04/08 08:39:05;;;;;;;14.45;3.00;;;;;;;4.95;57.37;101180.97;5070419;28;20139;-74
2021/04/08 08:41:31;;;;;;;14.25;3.00;;;;;;;4.96;57.21;101167.94;5065540;28;20033;-74
2021/04/08 08:43:57;;;;;;;9.38;2.33;;;;;;;4.92;56.08;101175.66;5056250;28;20380;-74
2021/04/08 08:46:26;;;;;;;7.15;1.70;;;;;;;4.95;56.80;101171.41;5047884;28;20473;-74
2021/04/08 08:48:53;;;;;;;13.80;3.33;;;;;;;5.05;56.81;101169.91;5074037;28;20043;-74
2021/04/08 08:51:20;;;;;;;10.18;2.92;;;;;;;5.27;56.24;101180.09;5057341;28;20048;-76
2021/04/08 08:53:46;;;;;;;15.93;2.85;;;;;;;5.72;56.75;101158.50;5074138;28;20032;-76
2021/04/08 08:56:14;;;;;;;10.80;2.80;;;;;;;5.96;55.55;101166.94;5073845;28;20183;-74
2021/04/08 08:58:39;;;;;;;10.10;2.88;;;;;;;5.90;54.22;101162.41;5074080;28;20131;-75
2021/04/08 09:01:06;;;;;;;12.15;2.45;;;;;;;5.74;53.51;101213.56;5073795;28;20127;-74
2021/04/08 09:03:31;;;;;;;10.77;2.60;;;;;;;5.61;52.98;101177.44;5073906;28;20477;-74
2021/04/08 09:05:59;;;;;;;9.82;1.77;;;;;;;5.39;53.31;101181.25;5073466;28;20090;-75
2021/04/08 09:08:28;;;;;;;9.07;3.13;;;;;;;5.28;54.75;101166.16;5073712;28;20082;-74
2021/04/08 09:10:54;;;;;;;10.27;3.22;;;;;;;5.47;54.85;101182.31;5073668;28;20038;-75
2021/04/08 09:13:20;;;;;;;9.60;2.15;;;;;;;5.56;55.89;101173.81;5055783;28;20052;-74
2021/04/08 09:15:46;;;;;;;15.57;2.55;;;;;;;5.65;54.81;101177.53;5073684;28;20058;-76
2021/04/08 09:18:13;;;;;;;8.15;2.15;;;;;;;5.63;53.83;101189.72;5073349;28;20028;-76
2021/04/08 09:20:39;;;;;;;10.65;2.33;;;;;;;5.59;54.45;101174.78;5056028;28;20445;-75
2021/04/08 09:23:11;;;;;;;9.55;2.33;;;;;;;5.44;54.94;101171.78;5055499;28;20085;-75
2021/04/08 09:25:37;;;;;;;7.90;1.95;;;;;;;5.54;54.58;101201.69;5073159;28;20039;-75
2021/04/08 09:28:11;;;;;;;8.60;2.58;;;;;;;5.75;53.95;101173.41;5073426;28;20032;-74
2021/04/08 09:33:18;;;;;;;7.78;2.22;;;;;;;5.90;51.68;101173.78;5073324;28;20041;-74
2021/04/08 09:35:44;;;;;;;8.10;1.90;;;;;;;5.70;52.38;101191.63;5073049;28;20047;-74
2021/04/08 09:38:09;;;;;;;8.10;2.25;;;;;;;5.68;52.72;101176.72;5073056;28;20068;-74
2021/04/08 09:40:43;;;;;;;10.45;1.60;;;;;;;5.66;51.62;101204.63;5073251;28;20071;-74
2021/04/08 09:43:14;;;;;;;8.77;1.63;;;;;;;5.53;52.23;101186.81;5073325;28;20483;-74
2021/04/08 09:46:01;;;;;;;11.57;2.35;;;;;;;5.69;52.80;101179.38;5054866;28;20112;-74
2021/04/08 09:48:41;;;;;;;9.50;1.90;;;;;;;6.09;53.03;101182.97;5072958;28;20170;-74
2021/04/08 09:51:07;;;;;;;8.65;2.25;;;;;;;6.11;51.74;101173.41;5054846;28;20408;-74
2021/04/08 09:53:38;;;;;;;7.70;2.08;;;;;;;6.05;50.03;101211.69;5054460;28;20040;-74
2021/04/08 09:56:06;;;;;;;5.72;1.38;;;;;;;5.71;51.35;101208.22;5072782;28;20028;-74
2021/04/08 09:58:35;;;;;;;5.75;1.60;;;;;;;5.54;52.78;101204.31;5066800;28;20115;-74
2021/04/08 10:01:04;;;;;;;10.10;2.00;;;;;;;5.67;52.43;101194.19;5071969;28;20655;-74
2021/04/08 10:03:31;;;;;;;7.93;1.63;;;;;;;5.79;53.19;101206.69;5067989;28;20040;-73
2021/04/08 10:05:57;;;;;;;7.90;1.80;;;;;;;6.12;50.38;101193.50;5071649;28;20086;-74
2021/04/08 10:08:24;;;;;;;8.05;1.40;;;;;;;6.43;48.61;101209.91;5072479;28;20017;-73
2021/04/08 10:10:50;;;;;;;5.20;1.30;;;;;;;6.43;48.37;101206.44;5072667;28;20044;-74
2021/04/08 10:13:17;;;;;;;7.03;1.52;;;;;;;6.79;48.29;101207.19;5054650;28;20035;-74
2021/04/08 10:15:42;;;;;;;6.90;1.83;;;;;;;7.05;49.11;101198.03;5062832;28;20068;-74
2021/04/08 10:18:16;;;;;;;8.80;2.25;;;;;;;6.92;49.89;101223.19;5054433;28;20079;-74
2021/04/08 10:20:43;;;;;;;7.40;1.80;;;;;;;6.65;52.85;101223.47;5071858;28;20108;-75
2021/04/08 10:23:09;;;;;;;8.40;1.48;;;;;;;6.35;55.70;101214.13;5072370;28;20036;-74
2021/04/08 10:25:37;;;;;;;10.23;2.45;;;;;;;6.37;56.07;101233.41;5071999;28;20068;-74
2021/04/08 10:28:03;;;;;;;7.97;1.95;;;;;;;5.96;57.12;101235.94;5072426;28;20050;-74
2021/04/08 10:30:35;;;;;;;10.90;2.42;;;;;;;5.76;57.98;101226.69;5068020;28;20445;-74
2021/04/08 10:33:01;;;;;;;9.55;1.83;;;;;;;5.73;57.39;101224.88;5063417;28;20033;-74
2021/04/08 10:35:30;;;;;;;8.63;2.25;;;;;;;5.77;57.17;101226.72;5070228;28;20024;-74
2021/04/08 10:37:59;;;;;;;8.15;1.85;;;;;;;6.01;56.92;101239.56;5052420;28;20028;-74
2021/04/08 10:40:24;;;;;;;7.50;1.83;;;;;;;6.27;56.25;101237.53;5071033;28;20036;-74
2021/04/08 10:42:50;;;;;;;7.80;1.90;;;;;;;6.69;52.55;101217.47;5071846;28;20486;-73
2021/04/08 10:45:16;;;;;;;12.60;2.53;;;;;;;7.11;53.59;101214.78;5071607;28;20083;-74
2021/04/08 10:47:41;;;;;;;6.15;1.98;;;;;;;7.72;51.37;101220.25;5071801;28;20051;-74
2021/04/08 10:50:07;;;;;;;9.57;2.63;;;;;;;7.63;49.47;101225.34;5071691;28;20040;-74
2021/04/08 10:52:38;;;;;;;6.97;2.38;;;;;;;7.48;49.42;101215.47;5071845;28;20044;-74
2021/04/08 10:55:14;;;;;;;7.18;2.15;;;;;;;7.42;49.54;101218.88;5071544;28;20032;-74
2021/04/08 10:57:41;;;;;;;4.97;1.65;;;;;;;7.44;49.87;101218.88;5064937;28;20029;-74
2021/04/08 11:00:09;;;;;;;8.02;1.98;;;;;;;7.43;48.55;101233.75;5071606;28;20441;-75
2021/04/08 11:02:41;;;;;;;7.75;1.58;;;;;;;7.47;49.51;101213.69;5071516;28;20051;-75
2021/04/08 11:05:28;;;;;;;6.28;1.50;;;;;;;7.74;46.42;101218.53;5053265;28;20046;-75
2021/04/08 11:07:57;;;;;;;7.47;1.70;;;;;;;8.14;46.75;101234.91;5070928;28;20048;-75
2021/04/08 11:10:30;;;;;;;6.00;1.45;;;;;;;8.02;47.02;101234.75;5071229;28;20043;-75
2021/04/08 11:12:57;;;;;;;8.35;1.48;;;;;;;7.57;50.24;101249.78;5071494;28;20562;-75
2021/04/08 11:15:25;;;;;;;4.72;1.33;;;;;;;6.37;52.33;101304.19;5071123;28;20028;-74
2021/04/08 11:17:52;;;;;;;8.18;1.23;;;;;;;5.72;53.09;101271.13;5071390;28;20044;-73
2021/04/08 11:20:26;;;;;;;4.32;1.10;;;;;;;5.77;54.44;101296.56;5071001;28;20060;-73
2021/04/08 11:22:52;;;;;;;4.68;1.10;;;;;;;5.89;54.70;101294.25;5071468;28;20036;-74
2021/04/08 11:25:18;;;;;;;5.63;1.00;;;;;;;5.76;54.44;101303.50;5071014;28;20097;-73
2021/04/08 11:27:44;;;;;;;6.40;1.17;;;;;;;6.18;54.46;101278.38;5071362;28;20040;-74
2021/04/08 11:30:13;;;;;;;5.22;1.20;;;;;;;6.24;54.60;101270.69;5071127;28;20033;-74
2021/04/08 11:32:58;;;;;;;3.17;0.90;;;;;;;6.77;53.24;101287.59;5071038;28;20036;-74
2021/04/08 11:35:37;;;;;;;4.60;1.05;;;;;;;7.21;50.07;101273.63;5070924;28;20035;-74
2021/04/08 11:38:10;;;;;;;4.00;1.10;;;;;;;7.29;48.39;101258.00;5071289;28;20136;-74